sensor_id;sensor_type;location;lat;lon;timestamp;pressure;altitude;pressure_sealevel;temperature;humidity
72900;BME280;61043;52.036;5.566;2022-09-09T00:06:28;100837.03;;;16.99;80.50
72900;BME280;61043;52.036;5.566;2022-09-09T00:12:09;100828.91;;;16.81;80.63
72900;BME280;61043;52.036;5.566;2022-09-09T00:14:51;100831.88;;;16.78;81.38
72900;BME280;61043;52.036;5.566;2022-09-09T00:17:56;100823.00;;;16.78;81.17
72900;BME280;61043;52.036;5.566;2022-09-09T00:20:35;100832.41;;;16.72;82.05
72900;BME280;61043;52.036;5.566;2022-09-09T00:23:14;100826.66;;;16.67;81.75
72900;BME280;61043;52.036;5.566;2022-09-09T00:26:10;100824.72;;;16.59;82.29
72900;BME280;61043;52.036;5.566;2022-09-09T00:31:30;100822.88;;;16.60;82.02
72900;BME280;61043;52.036;5.566;2022-09-09T00:34:24;100837.38;;;16.57;81.71
72900;BME280;61043;52.036;5.566;2022-09-09T00:36:53;100816.72;;;16.50;82.04
72900;BME280;61043;52.036;5.566;2022-09-09T00:39:39;100796.09;;;16.42;82.33
72900;BME280;61043;52.036;5.566;2022-09-09T00:42:17;100818.28;;;16.43;82.61
72900;BME280;61043;52.036;5.566;2022-09-09T00:45:19;100819.97;;;16.44;82.19
72900;BME280;61043;52.036;5.566;2022-09-09T00:47:51;100809.88;;;16.37;82.65
72900;BME280;61043;52.036;5.566;2022-09-09T00:50:47;100814.91;;;16.41;82.76
72900;BME280;61043;52.036;5.566;2022-09-09T00:56:08;100805.78;;;16.33;82.05
72900;BME280;61043;52.036;5.566;2022-09-09T00:58:37;100805.66;;;16.35;81.83
72900;BME280;61043;52.036;5.566;2022-09-09T01:03:49;100800.16;;;16.36;81.58
72900;BME280;61043;52.036;5.566;2022-09-09T01:06:30;100797.75;;;16.33;81.53
72900;BME280;61043;52.036;5.566;2022-09-09T01:16:41;100813.38;;;16.28;81.08
72900;BME280;61043;52.036;5.566;2022-09-09T01:19:10;100823.22;;;16.37;80.62
72900;BME280;61043;52.036;5.566;2022-09-09T01:21:59;100812.66;;;16.36;81.34
72900;BME280;61043;52.036;5.566;2022-09-09T01:27:01;100813.78;;;16.33;81.71
72900;BME280;61043;52.036;5.566;2022-09-09T01:29:28;100810.00;;;16.26;80.75
72900;BME280;61043;52.036;5.566;2022-09-09T01:32:00;100818.59;;;16.30;80.78
72900;BME280;61043;52.036;5.566;2022-09-09T01:34:36;100819.56;;;16.29;80.98
72900;BME280;61043;52.036;5.566;2022-09-09T01:37:05;100818.47;;;16.22;81.25
72900;BME280;61043;52.036;5.566;2022-09-09T01:39:35;100808.63;;;16.12;80.86
72900;BME280;61043;52.036;5.566;2022-09-09T01:42:04;100810.75;;;16.09;81.22
72900;BME280;61043;52.036;5.566;2022-09-09T01:44:31;100808.06;;;16.09;81.12
72900;BME280;61043;52.036;5.566;2022-09-09T01:46:58;100788.97;;;15.94;81.31
72900;BME280;61043;52.036;5.566;2022-09-09T01:49:24;100802.19;;;15.96;81.61
72900;BME280;61043;52.036;5.566;2022-09-09T01:51:54;100811.44;;;16.01;81.91
72900;BME280;61043;52.036;5.566;2022-09-09T01:54:23;100805.53;;;15.98;81.95
72900;BME280;61043;52.036;5.566;2022-09-09T01:59:53;100805.25;;;15.91;82.65
72900;BME280;61043;52.036;5.566;2022-09-09T02:02:33;100802.59;;;15.81;82.28
72900;BME280;61043;52.036;5.566;2022-09-09T02:05:13;100796.94;;;15.75;83.09
72900;BME280;61043;52.036;5.566;2022-09-09T02:07:47;100801.44;;;15.74;82.58
72900;BME280;61043;52.036;5.566;2022-09-09T02:10:56;100783.16;;;15.60;83.69
72900;BME280;61043;52.036;5.566;2022-09-09T02:13:17;100783.28;;;15.58;83.59
72900;BME280;61043;52.036;5.566;2022-09-09T02:16:07;100792.72;;;15.62;83.17
72900;BME280;61043;52.036;5.566;2022-09-09T02:18:40;100785.41;;;15.55;83.50
72900;BME280;61043;52.036;5.566;2022-09-09T02:21:09;100781.31;;;15.50;84.09
72900;BME280;61043;52.036;5.566;2022-09-09T02:23:39;100795.50;;;15.51;83.54
72900;BME280;61043;52.036;5.566;2022-09-09T02:26:09;100792.16;;;15.49;83.86
72900;BME280;61043;52.036;5.566;2022-09-09T02:28:38;100787.22;;;15.44;83.93
72900;BME280;61043;52.036;5.566;2022-09-09T02:31:06;100782.56;;;15.37;83.92
72900;BME280;61043;52.036;5.566;2022-09-09T02:33:38;100785.34;;;15.35;83.56
72900;BME280;61043;52.036;5.566;2022-09-09T02:36:07;100782.00;;;15.33;83.91
72900;BME280;61043;52.036;5.566;2022-09-09T02:38:39;100799.28;;;15.39;84.30
72900;BME280;61043;52.036;5.566;2022-09-09T02:41:06;100786.75;;;15.29;84.28
72900;BME280;61043;52.036;5.566;2022-09-09T02:43:34;100781.28;;;15.31;84.17
72900;BME280;61043;52.036;5.566;2022-09-09T02:48:57;100780.16;;;15.24;84.22
72900;BME280;61043;52.036;5.566;2022-09-09T02:56:52;100791.81;;;15.23;84.50
72900;BME280;61043;52.036;5.566;2022-09-09T02:59:21;100779.72;;;15.19;84.35
72900;BME280;61043;52.036;5.566;2022-09-09T03:01:47;100767.47;;;15.06;84.14
72900;BME280;61043;52.036;5.566;2022-09-09T03:04:14;100775.75;;;15.03;84.10
72900;BME280;61043;52.036;5.566;2022-09-09T03:06:41;100777.16;;;15.07;84.88
72900;BME280;61043;52.036;5.566;2022-09-09T03:09:07;100787.84;;;15.07;84.88
72900;BME280;61043;52.036;5.566;2022-09-09T03:11:36;100774.59;;;14.96;85.35
72900;BME280;61043;52.036;5.566;2022-09-09T03:14:04;100788.63;;;14.98;85.46
72900;BME280;61043;52.036;5.566;2022-09-09T03:16:31;100791.63;;;15.05;85.44
72900;BME280;61043;52.036;5.566;2022-09-09T03:19:00;100787.50;;;15.01;85.50
72900;BME280;61043;52.036;5.566;2022-09-09T03:21:27;100794.69;;;15.00;85.07
72900;BME280;61043;52.036;5.566;2022-09-09T03:23:53;100790.91;;;15.03;85.33
72900;BME280;61043;52.036;5.566;2022-09-09T03:26:20;100788.50;;;15.00;85.32
72900;BME280;61043;52.036;5.566;2022-09-09T03:28:47;100761.91;;;14.79;85.25
72900;BME280;61043;52.036;5.566;2022-09-09T03:31:13;100785.53;;;14.93;85.46
72900;BME280;61043;52.036;5.566;2022-09-09T03:33:40;100780.75;;;14.87;85.28
72900;BME280;61043;52.036;5.566;2022-09-09T03:36:07;100771.75;;;14.88;85.61
72900;BME280;61043;52.036;5.566;2022-09-09T03:38:34;100771.19;;;14.84;85.31
72900;BME280;61043;52.036;5.566;2022-09-09T03:41:01;100765.03;;;14.84;85.67
72900;BME280;61043;52.036;5.566;2022-09-09T03:43:28;100772.69;;;14.77;85.63
72900;BME280;61043;52.036;5.566;2022-09-09T03:45:56;100788.06;;;14.95;85.76
72900;BME280;61043;52.036;5.566;2022-09-09T03:48:25;100777.53;;;14.93;85.56
72900;BME280;61043;52.036;5.566;2022-09-09T03:50:54;100788.91;;;14.95;85.42
72900;BME280;61043;52.036;5.566;2022-09-09T03:53:23;100791.44;;;14.97;86.21
72900;BME280;61043;52.036;5.566;2022-09-09T03:55:53;100787.22;;;14.94;85.97
72900;BME280;61043;52.036;5.566;2022-09-09T03:58:23;100772.47;;;14.90;85.56
72900;BME280;61043;52.036;5.566;2022-09-09T04:00:58;100773.47;;;14.89;86.35
72900;BME280;61043;52.036;5.566;2022-09-09T04:03:26;100783.69;;;14.94;86.41
72900;BME280;61043;52.036;5.566;2022-09-09T04:05:56;100782.28;;;14.90;86.09
72900;BME280;61043;52.036;5.566;2022-09-09T04:08:23;100778.19;;;14.85;85.94
72900;BME280;61043;52.036;5.566;2022-09-09T04:10:52;100765.81;;;14.75;86.06
72900;BME280;61043;52.036;5.566;2022-09-09T04:13:19;100784.63;;;14.83;86.27
72900;BME280;61043;52.036;5.566;2022-09-09T04:18:19;100773.69;;;14.76;86.50
72900;BME280;61043;52.036;5.566;2022-09-09T04:20:48;100763.59;;;14.80;86.52
72900;BME280;61043;52.036;5.566;2022-09-09T04:23:15;100763.72;;;14.78;86.35
72900;BME280;61043;52.036;5.566;2022-09-09T04:25:46;100766.56;;;14.87;86.06
72900;BME280;61043;52.036;5.566;2022-09-09T04:28:14;100757.28;;;14.81;86.41
72900;BME280;61043;52.036;5.566;2022-09-09T04:30:41;100752.38;;;14.76;86.68
72900;BME280;61043;52.036;5.566;2022-09-09T04:33:08;100760.94;;;14.80;86.46
72900;BME280;61043;52.036;5.566;2022-09-09T04:35:36;100769.38;;;14.85;87.06
72900;BME280;61043;52.036;5.566;2022-09-09T04:38:03;100761.63;;;14.82;86.95
72900;BME280;61043;52.036;5.566;2022-09-09T04:40:30;100759.09;;;14.80;87.25
72900;BME280;61043;52.036;5.566;2022-09-09T04:42:58;100769.81;;;14.90;87.26
72900;BME280;61043;52.036;5.566;2022-09-09T04:45:25;100752.94;;;14.80;87.18
72900;BME280;61043;52.036;5.566;2022-09-09T04:47:53;100764.47;;;14.90;86.71
72900;BME280;61043;52.036;5.566;2022-09-09T04:50:20;100770.38;;;14.94;86.97
72900;BME280;61043;52.036;5.566;2022-09-09T04:52:47;100755.63;;;14.90;86.46
72900;BME280;61043;52.036;5.566;2022-09-09T04:55:13;100736.94;;;14.80;87.21
72900;BME280;61043;52.036;5.566;2022-09-09T04:57:40;100759.25;;;14.89;87.05
72900;BME280;61043;52.036;5.566;2022-09-09T05:00:08;100743.09;;;14.80;87.41
72900;BME280;61043;52.036;5.566;2022-09-09T05:02:37;100746.16;;;14.76;87.46
72900;BME280;61043;52.036;5.566;2022-09-09T05:05:05;100759.69;;;14.84;87.17
72900;BME280;61043;52.036;5.566;2022-09-09T05:07:32;100739.72;;;14.69;87.78
72900;BME280;61043;52.036;5.566;2022-09-09T05:09:59;100747.56;;;14.70;88.28
72900;BME280;61043;52.036;5.566;2022-09-09T05:12:25;100750.81;;;14.74;88.68
72900;BME280;61043;52.036;5.566;2022-09-09T05:14:52;100736.59;;;14.63;88.50
72900;BME280;61043;52.036;5.566;2022-09-09T05:17:19;100754.59;;;14.81;87.90
72900;BME280;61043;52.036;5.566;2022-09-09T05:19:45;100740.84;;;14.76;88.14
72900;BME280;61043;52.036;5.566;2022-09-09T05:22:12;100744.94;;;14.80;88.68
72900;BME280;61043;52.036;5.566;2022-09-09T05:24:38;100739.44;;;14.72;89.37
72900;BME280;61043;52.036;5.566;2022-09-09T05:27:05;100745.50;;;14.83;88.58
72900;BME280;61043;52.036;5.566;2022-09-09T05:29:32;100745.50;;;14.83;88.69
72900;BME280;61043;52.036;5.566;2022-09-09T05:32:01;100740.59;;;14.89;88.51
72900;BME280;61043;52.036;5.566;2022-09-09T05:34:28;100738.09;;;14.87;87.96
72900;BME280;61043;52.036;5.566;2022-09-09T05:36:55;100730.09;;;14.87;88.91
72900;BME280;61043;52.036;5.566;2022-09-09T05:39:22;100739.81;;;14.98;88.24
72900;BME280;61043;52.036;5.566;2022-09-09T05:41:48;100718.59;;;14.87;88.44
72900;BME280;61043;52.036;5.566;2022-09-09T05:44:14;100721.53;;;14.93;88.73
72900;BME280;61043;52.036;5.566;2022-09-09T05:46:43;100734.19;;;15.01;88.53
72900;BME280;61043;52.036;5.566;2022-09-09T05:49:11;100738.97;;;15.07;88.42
72900;BME280;61043;52.036;5.566;2022-09-09T05:51:37;100724.13;;;15.14;88.48
72900;BME280;61043;52.036;5.566;2022-09-09T05:54:04;100721.16;;;15.17;88.29
72900;BME280;61043;52.036;5.566;2022-09-09T05:56:30;100726.69;;;15.25;88.30
72900;BME280;61043;52.036;5.566;2022-09-09T05:59:00;100734.97;;;15.32;88.11
72900;BME280;61043;52.036;5.566;2022-09-09T06:01:32;100744.09;;;15.39;87.75
72900;BME280;61043;52.036;5.566;2022-09-09T06:03:59;100729.75;;;15.40;87.84
72900;BME280;61043;52.036;5.566;2022-09-09T06:06:32;100749.00;;;15.54;87.12
72900;BME280;61043;52.036;5.566;2022-09-09T06:09:04;100751.84;;;15.62;87.02
72900;BME280;61043;52.036;5.566;2022-09-09T06:11:38;100760.13;;;15.68;87.21
72900;BME280;61043;52.036;5.566;2022-09-09T06:14:06;100763.25;;;15.73;86.19
72900;BME280;61043;52.036;5.566;2022-09-09T06:16:33;100753.13;;;15.87;86.43
72900;BME280;61043;52.036;5.566;2022-09-09T06:19:00;100750.16;;;15.90;85.33
72900;BME280;61043;52.036;5.566;2022-09-09T06:21:29;100755.50;;;16.00;84.66
72900;BME280;61043;52.036;5.566;2022-09-09T06:23:56;100748.91;;;16.04;84.95
72900;BME280;61043;52.036;5.566;2022-09-09T06:26:33;100755.38;;;16.01;85.18
72900;BME280;61043;52.036;5.566;2022-09-09T06:29:01;100755.22;;;16.03;84.01
72900;BME280;61043;52.036;5.566;2022-09-09T06:31:31;100746.22;;;16.04;84.33
72900;BME280;61043;52.036;5.566;2022-09-09T06:33:58;100736.09;;;16.07;84.58
72900;BME280;61043;52.036;5.566;2022-09-09T06:36:30;100734.53;;;16.14;84.22
72900;BME280;61043;52.036;5.566;2022-09-09T06:38:57;100732.81;;;16.23;84.50
72900;BME280;61043;52.036;5.566;2022-09-09T06:41:29;100724.09;;;16.21;83.95
72900;BME280;61043;52.036;5.566;2022-09-09T06:43:55;100729.84;;;16.36;84.08
72900;BME280;61043;52.036;5.566;2022-09-09T06:46:24;100738.13;;;16.43;83.84
72900;BME280;61043;52.036;5.566;2022-09-09T06:48:55;100738.63;;;16.56;82.98
72900;BME280;61043;52.036;5.566;2022-09-09T06:51:23;100738.25;;;16.51;83.57
72900;BME280;61043;52.036;5.566;2022-09-09T06:53:51;100741.84;;;16.59;83.29
72900;BME280;61043;52.036;5.566;2022-09-09T06:56:23;100719.53;;;16.51;82.17
72900;BME280;61043;52.036;5.566;2022-09-09T06:58:51;100739.75;;;16.63;82.43
72900;BME280;61043;52.036;5.566;2022-09-09T07:01:23;100717.25;;;16.56;82.24
72900;BME280;61043;52.036;5.566;2022-09-09T07:03:52;100740.13;;;16.78;83.69
72900;BME280;61043;52.036;5.566;2022-09-09T07:06:22;100738.53;;;16.85;83.04
72900;BME280;61043;52.036;5.566;2022-09-09T07:08:51;100730.38;;;16.87;81.94
72900;BME280;61043;52.036;5.566;2022-09-09T07:11:24;100699.19;;;16.68;82.16
72900;BME280;61043;52.036;5.566;2022-09-09T07:13:53;100732.84;;;16.98;81.29
72900;BME280;61043;52.036;5.566;2022-09-09T07:16:21;100731.56;;;17.02;81.79
72900;BME280;61043;52.036;5.566;2022-09-09T07:18:54;100733.31;;;17.11;81.68
72900;BME280;61043;52.036;5.566;2022-09-09T07:21:28;100732.13;;;17.23;81.11
72900;BME280;61043;52.036;5.566;2022-09-09T07:23:55;100727.47;;;17.25;80.95
72900;BME280;61043;52.036;5.566;2022-09-09T07:26:28;100735.97;;;17.39;81.18
72900;BME280;61043;52.036;5.566;2022-09-09T07:28:55;100731.38;;;17.49;79.97
72900;BME280;61043;52.036;5.566;2022-09-09T07:31:27;100739.63;;;17.56;79.19
72900;BME280;61043;52.036;5.566;2022-09-09T07:33:53;100737.59;;;17.67;77.34
72900;BME280;61043;52.036;5.566;2022-09-09T07:36:23;100739.94;;;17.71;78.94
72900;BME280;61043;52.036;5.566;2022-09-09T07:38:55;100744.22;;;17.63;79.21
72900;BME280;61043;52.036;5.566;2022-09-09T07:41:28;100736.81;;;17.39;78.92
72900;BME280;61043;52.036;5.566;2022-09-09T07:43:56;100749.06;;;17.60;79.38
72900;BME280;61043;52.036;5.566;2022-09-09T07:46:24;100755.47;;;17.67;78.36
72900;BME280;61043;52.036;5.566;2022-09-09T07:48:54;100748.81;;;17.71;78.14
72900;BME280;61043;52.036;5.566;2022-09-09T07:51:32;100753.66;;;17.85;78.33
72900;BME280;61043;52.036;5.566;2022-09-09T07:54:02;100754.38;;;17.87;77.84
72900;BME280;61043;52.036;5.566;2022-09-09T07:56:30;100753.97;;;17.82;76.96
72900;BME280;61043;52.036;5.566;2022-09-09T07:58:59;100749.59;;;17.81;76.94
72900;BME280;61043;52.036;5.566;2022-09-09T08:01:31;100734.91;;;17.85;77.35
72900;BME280;61043;52.036;5.566;2022-09-09T08:04:00;100746.38;;;17.78;75.54
72900;BME280;61043;52.036;5.566;2022-09-09T08:06:30;100756.50;;;17.84;75.84
72900;BME280;61043;52.036;5.566;2022-09-09T08:08:57;100754.13;;;17.81;75.53
72900;BME280;61043;52.036;5.566;2022-09-09T08:11:25;100748.97;;;17.69;76.02
72900;BME280;61043;52.036;5.566;2022-09-09T08:13:53;100756.84;;;17.71;76.66
72900;BME280;61043;52.036;5.566;2022-09-09T08:16:29;100753.34;;;17.71;77.55
72900;BME280;61043;52.036;5.566;2022-09-09T08:18:57;100753.19;;;17.72;77.43
72900;BME280;61043;52.036;5.566;2022-09-09T08:21:29;100724.78;;;17.61;76.93
72900;BME280;61043;52.036;5.566;2022-09-09T08:23:56;100756.63;;;18.00;75.42
72900;BME280;61043;52.036;5.566;2022-09-09T08:26:27;100763.78;;;18.18;76.00
72900;BME280;61043;52.036;5.566;2022-09-09T08:28:56;100771.78;;;18.36;75.87
72900;BME280;61043;52.036;5.566;2022-09-09T08:31:29;100769.94;;;18.36;74.69
72900;BME280;61043;52.036;5.566;2022-09-09T08:33:57;100757.09;;;18.40;74.18
72900;BME280;61043;52.036;5.566;2022-09-09T08:36:27;100767.47;;;18.43;74.40
72900;BME280;61043;52.036;5.566;2022-09-09T08:38:57;100753.44;;;18.23;73.63
72900;BME280;61043;52.036;5.566;2022-09-09T08:42:05;100774.19;;;18.21;73.59
72900;BME280;61043;52.036;5.566;2022-09-09T08:47:49;100767.16;;;18.20;74.19
72900;BME280;61043;52.036;5.566;2022-09-09T08:53:04;100775.47;;;18.34;74.61
72900;BME280;61043;52.036;5.566;2022-09-09T08:55:51;100779.69;;;18.37;74.16
72900;BME280;61043;52.036;5.566;2022-09-09T08:58:21;100769.16;;;18.44;74.45
72900;BME280;61043;52.036;5.566;2022-09-09T09:03:47;100780.41;;;18.47;73.54
72900;BME280;61043;52.036;5.566;2022-09-09T09:11:55;100784.09;;;18.46;73.26
72900;BME280;61043;52.036;5.566;2022-09-09T09:14:24;100780.50;;;18.38;73.33
72900;BME280;61043;52.036;5.566;2022-09-09T09:19:40;100794.38;;;18.33;73.71
72900;BME280;61043;52.036;5.566;2022-09-09T09:29:49;100782.00;;;18.32;73.85
72900;BME280;61043;52.036;5.566;2022-09-09T09:32:39;100785.03;;;18.37;73.38
72900;BME280;61043;52.036;5.566;2022-09-09T09:35:12;100784.88;;;18.39;73.17
72900;BME280;61043;52.036;5.566;2022-09-09T09:37:40;100773.56;;;18.27;73.10
72900;BME280;61043;52.036;5.566;2022-09-09T09:40:28;100779.34;;;18.40;73.03
72900;BME280;61043;52.036;5.566;2022-09-09T09:42:57;100782.91;;;18.49;73.31
72900;BME280;61043;52.036;5.566;2022-09-09T09:45:43;100783.16;;;18.55;73.33
72900;BME280;61043;52.036;5.566;2022-09-09T09:48:33;100779.03;;;18.43;72.51
72900;BME280;61043;52.036;5.566;2022-09-09T09:51:09;100790.19;;;18.56;72.51
72900;BME280;61043;52.036;5.566;2022-09-09T09:53:39;100790.41;;;18.63;72.59
72900;BME280;61043;52.036;5.566;2022-09-09T09:56:08;100780.25;;;18.75;72.86
72900;BME280;61043;52.036;5.566;2022-09-09T09:58:50;100783.91;;;18.74;72.89
72900;BME280;61043;52.036;5.566;2022-09-09T10:01:23;100785.88;;;18.64;71.32
72900;BME280;61043;52.036;5.566;2022-09-09T10:03:52;100784.19;;;18.63;72.04
72900;BME280;61043;52.036;5.566;2022-09-09T10:06:33;100772.09;;;18.59;72.09
72900;BME280;61043;52.036;5.566;2022-09-09T10:09:03;100795.75;;;18.63;72.18
72900;BME280;61043;52.036;5.566;2022-09-09T10:12:05;100780.09;;;18.50;71.59
72900;BME280;61043;52.036;5.566;2022-09-09T10:14:58;100783.56;;;18.43;71.74
72900;BME280;61043;52.036;5.566;2022-09-09T10:17:41;100781.66;;;18.35;72.12
72900;BME280;61043;52.036;5.566;2022-09-09T10:23:19;100779.34;;;18.40;71.58
72900;BME280;61043;52.036;5.566;2022-09-09T10:28:52;100779.41;;;18.48;71.53
72900;BME280;61043;52.036;5.566;2022-09-09T10:34:41;100799.38;;;18.54;71.12
72900;BME280;61043;52.036;5.566;2022-09-09T10:37:26;100814.03;;;18.42;73.12
72900;BME280;61043;52.036;5.566;2022-09-09T10:40:05;100826.75;;;18.14;76.52
72900;BME280;61043;52.036;5.566;2022-09-09T10:42:38;100812.59;;;17.85;79.07
72900;BME280;61043;52.036;5.566;2022-09-09T10:45:17;100805.34;;;17.68;80.12
72900;BME280;61043;52.036;5.566;2022-09-09T10:50:56;100816.81;;;17.60;81.31
72900;BME280;61043;52.036;5.566;2022-09-09T10:53:52;100806.34;;;17.67;81.14
72900;BME280;61043;52.036;5.566;2022-09-09T10:56:21;100798.38;;;17.57;81.50
72900;BME280;61043;52.036;5.566;2022-09-09T10:59:00;100799.09;;;17.77;80.98
72900;BME280;61043;52.036;5.566;2022-09-09T11:01:33;100791.22;;;17.94;82.31
72900;BME280;61043;52.036;5.566;2022-09-09T11:04:15;100800.16;;;18.20;82.08
72900;BME280;61043;52.036;5.566;2022-09-09T11:06:47;100796.59;;;18.38;80.73
72900;BME280;61043;52.036;5.566;2022-09-09T11:09:23;100797.88;;;18.77;81.34
72900;BME280;61043;52.036;5.566;2022-09-09T11:11:56;100783.41;;;18.96;80.45
72900;BME280;61043;52.036;5.566;2022-09-09T11:14:32;100782.97;;;19.17;80.19
72900;BME280;61043;52.036;5.566;2022-09-09T11:17:22;100786.44;;;19.02;80.13
72900;BME280;61043;52.036;5.566;2022-09-09T11:19:50;100794.94;;;18.89;80.44
72900;BME280;61043;52.036;5.566;2022-09-09T11:22:36;100794.06;;;18.62;80.02
72900;BME280;61043;52.036;5.566;2022-09-09T11:25:10;100794.84;;;18.54;81.27
72900;BME280;61043;52.036;5.566;2022-09-09T11:27:44;100795.50;;;18.48;80.39
72900;BME280;61043;52.036;5.566;2022-09-09T11:30:20;100785.66;;;18.57;81.45
72900;BME280;61043;52.036;5.566;2022-09-09T11:36:07;100790.09;;;19.43;79.51
72900;BME280;61043;52.036;5.566;2022-09-09T11:41:08;100776.09;;;19.82;78.43
72900;BME280;61043;52.036;5.566;2022-09-09T11:43:44;100774.88;;;19.84;76.90
72900;BME280;61043;52.036;5.566;2022-09-09T11:46:14;100772.19;;;19.84;76.68
72900;BME280;61043;52.036;5.566;2022-09-09T11:48:45;100770.16;;;19.62;77.19
72900;BME280;61043;52.036;5.566;2022-09-09T11:54:25;100763.03;;;19.36;77.02
72900;BME280;61043;52.036;5.566;2022-09-09T11:56:46;100769.22;;;19.20;76.52
72900;BME280;61043;52.036;5.566;2022-09-09T11:59:30;100775.41;;;19.13;76.34
72900;BME280;61043;52.036;5.566;2022-09-09T12:02:18;100771.91;;;19.29;77.25
72900;BME280;61043;52.036;5.566;2022-09-09T12:04:55;100769.09;;;19.30;76.44
72900;BME280;61043;52.036;5.566;2022-09-09T12:12:47;100768.53;;;19.18;74.83
72900;BME280;61043;52.036;5.566;2022-09-09T12:15:21;100788.81;;;19.13;76.40
72900;BME280;61043;52.036;5.566;2022-09-09T12:17:50;100774.84;;;19.01;76.95
72900;BME280;61043;52.036;5.566;2022-09-09T12:20:33;100780.38;;;18.99;78.50
72900;BME280;61043;52.036;5.566;2022-09-09T12:23:22;100781.66;;;18.87;77.66
72900;BME280;61043;52.036;5.566;2022-09-09T12:26:05;100779.78;;;18.80;77.52
72900;BME280;61043;52.036;5.566;2022-09-09T12:28:41;100783.28;;;18.80;76.47
72900;BME280;61043;52.036;5.566;2022-09-09T12:34:51;100775.50;;;18.95;77.40
72900;BME280;61043;52.036;5.566;2022-09-09T12:36:57;100771.41;;;19.25;75.61
72900;BME280;61043;52.036;5.566;2022-09-09T12:41:53;100773.47;;;19.48;75.43
72900;BME280;61043;52.036;5.566;2022-09-09T12:44:24;100768.91;;;19.40;74.52
72900;BME280;61043;52.036;5.566;2022-09-09T12:46:51;100771.59;;;19.32;74.43
72900;BME280;61043;52.036;5.566;2022-09-09T12:49:38;100761.72;;;19.40;75.10
72900;BME280;61043;52.036;5.566;2022-09-09T12:52:08;100765.41;;;19.39;75.08
72900;BME280;61043;52.036;5.566;2022-09-09T12:54:44;100763.41;;;19.41;74.80
72900;BME280;61043;52.036;5.566;2022-09-09T12:57:13;100754.97;;;19.28;75.21
72900;BME280;61043;52.036;5.566;2022-09-09T12:59:43;100757.81;;;19.27;75.64
72900;BME280;61043;52.036;5.566;2022-09-09T13:02:18;100762.03;;;19.37;74.99
72900;BME280;61043;52.036;5.566;2022-09-09T13:04:46;100766.34;;;19.22;74.63
72900;BME280;61043;52.036;5.566;2022-09-09T13:07:13;100761.78;;;19.14;75.34
72900;BME280;61043;52.036;5.566;2022-09-09T13:09:43;100747.53;;;19.06;74.89
72900;BME280;61043;52.036;5.566;2022-09-09T13:12:16;100762.84;;;19.21;74.75
72900;BME280;61043;52.036;5.566;2022-09-09T13:14:47;100747.41;;;19.24;74.47
72900;BME280;61043;52.036;5.566;2022-09-09T13:17:21;100763.41;;;19.41;73.71
72900;BME280;61043;52.036;5.566;2022-09-09T13:19:48;100760.72;;;19.41;73.53
72900;BME280;61043;52.036;5.566;2022-09-09T13:22:30;100750.13;;;19.32;73.66
72900;BME280;61043;52.036;5.566;2022-09-09T13:27:40;100755.69;;;19.47;73.53
72900;BME280;61043;52.036;5.566;2022-09-09T13:30:21;100757.03;;;19.51;72.97
72900;BME280;61043;52.036;5.566;2022-09-09T13:38:14;100741.66;;;19.77;71.67
72900;BME280;61043;52.036;5.566;2022-09-09T13:40:52;100730.56;;;19.97;72.17
72900;BME280;61043;52.036;5.566;2022-09-09T13:43:22;100743.31;;;20.19;70.94
72900;BME280;61043;52.036;5.566;2022-09-09T13:46:26;100746.00;;;20.19;70.12
72900;BME280;61043;52.036;5.566;2022-09-09T13:51:40;100743.78;;;20.23;70.15
72900;BME280;61043;52.036;5.566;2022-09-09T13:54:10;100734.41;;;20.02;70.28
72900;BME280;61043;52.036;5.566;2022-09-09T13:56:38;100745.69;;;20.06;70.85
72900;BME280;61043;52.036;5.566;2022-09-09T13:59:08;100737.28;;;20.01;70.17
72900;BME280;61043;52.036;5.566;2022-09-09T14:01:36;100741.63;;;20.02;70.38
72900;BME280;61043;52.036;5.566;2022-09-09T14:04:03;100733.56;;;20.02;70.30
72900;BME280;61043;52.036;5.566;2022-09-09T14:06:30;100729.22;;;20.01;70.21
72900;BME280;61043;52.036;5.566;2022-09-09T14:08:56;100743.00;;;19.98;70.37
72900;BME280;61043;52.036;5.566;2022-09-09T14:11:23;100731.91;;;20.01;69.83
72900;BME280;61043;52.036;5.566;2022-09-09T14:13:49;100732.22;;;20.22;69.81
72900;BME280;61043;52.036;5.566;2022-09-09T14:16:17;100740.41;;;20.37;69.46
72900;BME280;61043;52.036;5.566;2022-09-09T14:18:44;100725.28;;;20.44;68.43
72900;BME280;61043;52.036;5.566;2022-09-09T14:21:11;100739.81;;;20.75;68.86
72900;BME280;61043;52.036;5.566;2022-09-09T14:23:38;100717.84;;;21.02;68.26
72900;BME280;61043;52.036;5.566;2022-09-09T14:26:05;100739.41;;;21.56;66.96
72900;BME280;61043;52.036;5.566;2022-09-09T14:28:32;100730.59;;;21.86;65.14
72900;BME280;61043;52.036;5.566;2022-09-09T14:31:19;100708.75;;;21.80;66.04
72900;BME280;61043;52.036;5.566;2022-09-09T14:33:47;100735.00;;;22.01;65.57
72900;BME280;61043;52.036;5.566;2022-09-09T14:36:13;100729.06;;;22.06;65.31
72900;BME280;61043;52.036;5.566;2022-09-09T14:38:41;100730.84;;;22.14;65.33
72900;BME280;61043;52.036;5.566;2022-09-09T14:41:10;100733.88;;;22.19;64.34
72900;BME280;61043;52.036;5.566;2022-09-09T14:43:38;100725.78;;;22.49;64.25
72900;BME280;61043;52.036;5.566;2022-09-09T14:46:06;100729.31;;;22.64;63.31
72900;BME280;61043;52.036;5.566;2022-09-09T14:48:33;100726.25;;;22.67;63.17
72900;BME280;61043;52.036;5.566;2022-09-09T14:51:09;100733.06;;;22.78;62.60
72900;BME280;61043;52.036;5.566;2022-09-09T14:53:36;100711.63;;;22.76;62.20
72900;BME280;61043;52.036;5.566;2022-09-09T14:56:13;100717.84;;;22.92;62.21
72900;BME280;61043;52.036;5.566;2022-09-09T14:58:39;100715.22;;;23.13;61.14
72900;BME280;61043;52.036;5.566;2022-09-09T15:01:09;100721.38;;;23.07;61.02
72900;BME280;61043;52.036;5.566;2022-09-09T15:03:38;100703.59;;;23.13;61.18